createdAt,value
2018-03-27T00:02:25.332Z,41.22
2018-03-27T00:04:59.117Z,39.38
2018-03-27T00:07:30.605Z,44.90
2018-03-27T00:10:00.918Z,44.63
2018-03-27T00:12:32.824Z,46.50
2018-03-27T00:15:03.260Z,42.50
2018-03-27T00:17:33.915Z,52.53
2018-03-27T00:20:04.243Z,46.55
2018-03-27T00:22:35.036Z,40.83
2018-03-27T00:25:05.878Z,46.05
2018-03-27T00:27:47.146Z,45.45
2018-03-27T00:30:34.781Z,48.63
2018-03-27T00:33:22.287Z,51.40
2018-03-27T00:36:09.836Z,48.80
2018-03-27T00:38:57.856Z,47.73
2018-03-27T00:41:43.048Z,48.78
2018-03-27T00:44:13.424Z,47.92
2018-03-27T00:46:43.605Z,49.30
2018-03-27T00:49:14.158Z,50.07
2018-03-27T00:51:46.255Z,48.83
2018-03-27T00:54:17.022Z,49.00
2018-03-27T00:56:47.541Z,45.07
2018-03-27T00:59:18.056Z,44.67
2018-03-27T01:01:48.425Z,49.70
2018-03-27T01:04:18.744Z,46.47
2018-03-27T01:06:49.178Z,46.90
2018-03-27T01:09:20.624Z,42.38
2018-03-27T01:11:50.994Z,48.47
2018-03-27T01:14:21.480Z,49.72
2018-03-27T01:16:52.362Z,47.97
2018-03-27T01:19:25.043Z,45.43
2018-03-27T01:21:56.200Z,50.00
2018-03-27T01:24:26.827Z,48.60
2018-03-27T01:26:57.703Z,45.65
2018-03-27T01:29:28.475Z,43.05
2018-03-27T01:31:59.570Z,49.17
2018-03-27T01:34:30.014Z,43.50
2018-03-27T01:37:00.882Z,42.40
2018-03-27T01:39:31.931Z,44.03
2018-03-27T01:42:02.287Z,41.60
2018-03-27T01:44:32.683Z,44.38
2018-03-27T01:47:04.033Z,46.53
2018-03-27T01:49:35.587Z,47.00
2018-03-27T01:52:05.876Z,42.58
2018-03-27T01:54:36.539Z,40.33
2018-03-27T01:57:07.309Z,39.83
2018-03-27T01:59:37.807Z,41.30
2018-03-27T02:02:08.216Z,39.40
2018-03-27T02:04:39.243Z,42.35
2018-03-27T02:07:09.640Z,42.53
2018-03-27T02:09:40.103Z,43.95
2018-03-27T02:12:15.876Z,45.47
2018-03-27T02:14:52.756Z,49.05
2018-03-27T02:17:30.008Z,48.08
2018-03-27T02:20:06.534Z,42.72
2018-03-27T02:22:37.591Z,50.47
2018-03-27T02:25:08.245Z,46.53
2018-03-27T02:27:39.200Z,49.53
2018-03-27T02:30:10.129Z,44.03
2018-03-27T02:32:40.827Z,47.60
2018-03-27T02:35:11.356Z,44.63
2018-03-27T02:37:41.697Z,46.30
2018-03-27T02:40:22.311Z,46.95
2018-03-27T02:42:53.312Z,51.33
2018-03-27T02:45:27.945Z,49.55
2018-03-27T02:47:59.258Z,48.60
2018-03-27T02:50:30.132Z,44.30
2018-03-27T02:53:00.387Z,41.72
2018-03-27T02:55:31.954Z,44.10
2018-03-27T02:58:02.412Z,41.22
2018-03-27T03:00:32.867Z,43.22
2018-03-27T03:03:03.380Z,44.75
2018-03-27T03:05:33.831Z,43.70
2018-03-27T03:08:04.254Z,53.00
2018-03-27T03:13:22.024Z,49.67
2018-03-27T03:15:52.871Z,45.00
2018-03-27T03:18:23.632Z,49.20
2018-03-27T03:20:54.729Z,42.05
2018-03-27T03:23:25.302Z,45.53
2018-03-27T03:25:56.448Z,44.13
2018-03-27T03:28:27.161Z,43.85
2018-03-27T03:30:57.899Z,45.38
2018-03-27T03:33:28.592Z,43.55
2018-03-27T03:35:59.628Z,46.37
2018-03-27T03:38:29.831Z,46.05
2018-03-27T03:41:00.062Z,45.38
2018-03-27T03:43:30.374Z,43.08
2018-03-27T03:46:00.698Z,46.88
2018-03-27T03:48:31.175Z,47.57
2018-03-27T03:51:02.388Z,41.92
2018-03-27T03:53:33.047Z,42.22
2018-03-27T03:56:03.574Z,40.30
2018-03-27T03:58:37.268Z,40.97
2018-03-27T04:01:07.554Z,47.25
2018-03-27T04:03:38.060Z,43.30
2018-03-27T04:06:09.177Z,42.20
2018-03-27T04:08:39.784Z,45.60
2018-03-27T04:11:10.661Z,43.50
2018-03-27T04:13:41.748Z,43.42
2018-03-27T04:16:13.102Z,44.10
2018-03-27T04:18:44.521Z,43.85
2018-03-27T04:21:14.833Z,40.72
2018-03-27T04:26:27.088Z,40.17
2018-03-27T04:28:57.310Z,41.67
2018-03-27T04:31:28.050Z,44.47
2018-03-27T04:33:58.653Z,47.58
2018-03-27T04:36:28.874Z,38.55
2018-03-27T04:38:59.198Z,43.95
2018-03-27T04:41:29.493Z,44.15
2018-03-27T04:44:00.437Z,45.28
2018-03-27T04:46:30.690Z,50.28
2018-03-27T04:49:01.365Z,46.25
2018-03-27T04:51:32.557Z,43.75
2018-03-27T04:54:10.474Z,49.65
2018-03-27T04:56:49.630Z,50.33
2018-03-27T04:59:19.870Z,49.70
2018-03-27T05:01:51.325Z,47.05
2018-03-27T05:04:25.656Z,45.63
2018-03-27T05:06:56.300Z,48.87
2018-03-27T05:09:27.884Z,43.90
2018-03-27T05:11:58.362Z,43.78
2018-03-27T05:14:29.794Z,43.77
2018-03-27T05:17:00.309Z,46.63
2018-03-27T05:19:31.563Z,43.65
2018-03-27T05:22:02.099Z,46.70
2018-03-27T05:24:33.846Z,43.40
2018-03-27T05:27:04.642Z,48.90
2018-03-27T05:29:36.196Z,45.53
2018-03-27T05:32:06.802Z,44.38
2018-03-27T05:38:18.387Z,45.72
2018-03-27T05:40:49.869Z,47.38
2018-03-27T05:43:34.689Z,48.47
2018-03-27T05:46:12.861Z,43.90
2018-03-27T05:48:43.941Z,41.80
2018-03-27T05:51:17.175Z,41.67
2018-03-27T05:53:48.377Z,42.65
2018-03-27T05:56:19.862Z,40.30
2018-03-27T05:58:51.727Z,41.30
2018-03-27T06:01:23.229Z,36.67
2018-03-27T06:03:53.948Z,40.03
2018-03-27T06:06:24.522Z,42.47
2018-03-27T06:09:33.407Z,39.50
2018-03-27T06:12:04.155Z,42.67
2018-03-27T06:14:35.468Z,43.03
2018-03-27T06:17:06.438Z,38.85
2018-03-27T06:19:36.915Z,39.03
2018-03-27T06:22:08.067Z,40.67
2018-03-27T06:24:38.396Z,41.67
2018-03-27T06:27:09.094Z,38.70
2018-03-27T06:29:41.717Z,41.63
2018-03-27T06:32:13.025Z,40.70
2018-03-27T06:34:44.249Z,38.90
2018-03-27T06:37:15.616Z,42.50
2018-03-27T06:39:47.574Z,39.63
2018-03-27T06:42:20.842Z,39.50
2018-03-27T06:44:52.041Z,44.25
2018-03-27T06:47:27.500Z,46.15
2018-03-27T06:49:58.467Z,39.90
2018-03-27T06:52:39.274Z,52.42
2018-03-27T06:55:19.812Z,43.67
2018-03-27T06:57:56.285Z,40.42
2018-03-27T07:00:26.958Z,43.78
2018-03-27T07:03:00.367Z,40.80
2018-03-27T07:05:33.568Z,37.20
2018-03-27T07:08:04.471Z,40.20
2018-03-27T07:10:37.264Z,40.05
2018-03-27T07:13:10.738Z,46.15
2018-03-27T07:15:51.249Z,36.65
2018-03-27T07:18:24.363Z,38.75
2018-03-27T07:21:02.203Z,38.17
2018-03-27T08:13:50.322Z,37.70
2018-03-27T08:16:21.772Z,35.92
2018-03-27T08:18:55.816Z,36.17
2018-03-27T08:21:27.436Z,33.97
2018-03-27T08:23:58.456Z,31.17
2018-03-27T08:26:35.540Z,34.20
2018-03-27T08:29:21.149Z,29.85
2018-03-27T08:31:54.106Z,29.08
2018-03-27T08:34:49.480Z,31.05
2018-03-27T08:37:29.200Z,27.35
2018-03-27T08:40:07.428Z,27.85
2018-03-27T08:42:40.476Z,33.67
2018-03-27T08:45:15.041Z,32.60
2018-03-27T08:47:57.786Z,32.55
2018-03-27T08:50:29.009Z,30.62
2018-03-27T08:53:00.681Z,30.23
2018-03-27T08:56:08.900Z,32.17
2018-03-27T08:58:46.598Z,33.53
2018-03-27T09:01:45.102Z,32.55
2018-03-27T09:04:42.333Z,31.67
2018-03-27T09:07:14.436Z,33.40
2018-03-27T09:09:50.087Z,29.95
2018-03-27T09:12:22.254Z,29.93
2018-03-27T09:14:56.964Z,31.17
2018-03-27T09:17:28.240Z,27.50
2018-03-27T09:21:34.547Z,29.52
2018-03-27T09:24:05.958Z,31.70
2018-03-27T09:26:37.193Z,31.40
2018-03-27T09:29:32.548Z,28.80
2018-03-27T09:32:37.399Z,31.52
2018-03-27T09:35:23.974Z,28.67
2018-03-27T09:37:57.951Z,31.08
2018-03-27T09:41:11.012Z,30.62
2018-03-27T09:43:43.413Z,30.70
2018-03-27T09:49:25.113Z,32.33
2018-03-27T09:55:55.418Z,32.67
2018-03-27T09:58:26.160Z,34.80
2018-03-27T10:00:58.027Z,40.45
2018-03-27T10:03:44.275Z,38.35
2018-03-27T10:06:16.193Z,39.63
2018-03-27T10:08:48.006Z,37.13
2018-03-27T10:11:19.381Z,37.55
2018-03-27T10:13:50.566Z,38.13
2018-03-27T10:16:23.634Z,39.72
2018-03-27T10:19:17.242Z,41.17
2018-03-27T10:21:51.733Z,39.53
2018-03-27T10:24:23.467Z,41.85
2018-03-27T10:27:27.110Z,43.13
2018-03-27T10:30:36.075Z,39.60
2018-03-27T10:33:07.244Z,34.95
2018-03-27T10:35:46.889Z,28.98
2018-03-27T10:38:19.433Z,30.57
2018-03-27T10:41:14.355Z,33.10
2018-03-27T10:43:51.003Z,32.20
2018-03-27T10:46:21.714Z,33.75
2018-03-27T10:48:54.072Z,34.43
2018-03-27T10:51:24.489Z,33.60
2018-03-27T10:53:58.696Z,37.08
2018-03-27T10:56:29.893Z,39.13
2018-03-27T10:59:01.788Z,41.13
2018-03-27T11:01:32.589Z,38.08
2018-03-27T11:04:07.754Z,39.75
2018-03-27T11:06:43.889Z,36.97
2018-03-27T11:09:15.652Z,38.40
2018-03-27T11:11:53.919Z,37.03
2018-03-27T11:14:25.205Z,36.78
2018-03-27T11:17:03.811Z,39.95
2018-03-27T11:20:05.368Z,37.63
2018-03-27T11:22:37.903Z,33.70
2018-03-27T11:25:09.704Z,36.70
2018-03-27T11:28:01.272Z,40.15
2018-03-27T11:30:32.807Z,37.85
2018-03-27T11:33:03.533Z,34.53
2018-03-27T11:35:34.943Z,34.30
2018-03-27T11:38:06.365Z,32.45
2018-03-27T11:40:58.195Z,32.40
2018-03-27T11:43:29.925Z,31.10
2018-03-27T11:46:01.000Z,34.10
2018-03-27T11:48:33.133Z,31.30
2018-03-27T11:51:25.552Z,28.95
2018-03-27T11:54:22.875Z,28.15
2018-03-27T11:56:58.222Z,29.70
2018-03-27T11:59:31.909Z,24.42
2018-03-27T12:02:03.217Z,26.12
2018-03-27T12:04:36.761Z,23.58
2018-03-27T12:07:07.819Z,23.77
2018-03-27T12:09:39.895Z,24.55
2018-03-27T12:12:10.708Z,24.95
2018-03-27T12:14:41.402Z,29.60
2018-03-27T12:17:12.501Z,27.23
2018-03-27T12:19:42.888Z,29.60
2018-03-27T12:22:14.349Z,32.15
2018-03-27T12:24:45.259Z,30.65
2018-03-27T12:27:18.325Z,31.87
2018-03-27T12:29:49.455Z,31.40
2018-03-27T12:32:20.434Z,28.08
2018-03-27T12:34:51.776Z,28.90
2018-03-27T12:37:22.047Z,28.27
2018-03-27T12:39:54.735Z,29.23
2018-03-27T12:42:29.386Z,29.02
2018-03-27T12:45:00.986Z,28.50
2018-03-27T12:47:36.563Z,29.42
2018-03-27T12:50:58.506Z,30.77
2018-03-27T12:53:48.316Z,32.53
2018-03-27T12:56:39.045Z,31.23
2018-03-27T13:02:32.109Z,31.80
2018-03-27T13:05:03.444Z,32.10
2018-03-27T13:07:35.603Z,32.03
2018-03-27T13:10:09.096Z,30.92
2018-03-27T13:15:54.607Z,26.75
2018-03-27T13:18:27.453Z,27.98
2018-03-27T13:20:59.108Z,27.92
2018-03-27T13:23:29.481Z,23.60
2018-03-27T13:26:00.538Z,24.48
2018-03-27T13:28:37.926Z,24.58
2018-03-27T13:31:12.688Z,26.87
2018-03-27T13:37:37.724Z,26.33
2018-03-27T13:40:09.628Z,28.87
2018-03-27T13:42:49.188Z,27.33
2018-03-27T13:45:35.259Z,29.60
2018-03-27T13:48:05.669Z,26.95
2018-03-27T13:51:16.625Z,27.05
2018-03-27T13:53:48.465Z,24.73
2018-03-27T13:57:09.304Z,27.35
2018-03-27T14:03:21.635Z,26.48
2018-03-27T14:05:54.629Z,26.70
2018-03-27T14:08:27.106Z,25.15
2018-03-27T14:11:06.591Z,24.65
2018-03-27T14:13:42.056Z,23.58
2018-03-27T14:16:39.892Z,23.70
2018-03-27T14:19:13.313Z,24.25
2018-03-27T14:21:57.771Z,24.60
2018-03-27T14:24:29.089Z,22.90
2018-03-27T14:27:05.622Z,27.62
2018-03-27T14:29:38.126Z,27.17
2018-03-27T14:32:10.909Z,23.90
2018-03-27T14:37:44.759Z,28.40
2018-03-27T14:40:30.009Z,24.15
2018-03-27T14:43:23.992Z,25.08
2018-03-27T14:45:56.598Z,23.40
2018-03-27T14:51:34.725Z,28.40
2018-03-27T14:57:31.126Z,27.15
2018-03-27T15:00:03.873Z,29.35
2018-03-27T15:02:47.178Z,26.92
2018-03-27T15:05:29.199Z,27.83
2018-03-27T15:08:00.953Z,27.27
2018-03-27T15:11:07.627Z,26.60
2018-03-27T15:13:40.429Z,27.73
2018-03-27T15:16:11.274Z,29.17
2018-03-27T15:18:42.133Z,26.62
2018-03-27T15:21:13.213Z,27.10
2018-03-27T15:23:44.387Z,27.87
2018-03-27T15:26:14.679Z,26.57
2018-03-27T15:28:50.860Z,28.05
2018-03-27T15:31:21.783Z,25.57
2018-03-27T15:33:53.338Z,26.17
2018-03-27T15:36:25.027Z,25.03
2018-03-27T15:39:01.747Z,27.05
2018-03-27T15:41:33.469Z,24.40
2018-03-27T15:44:04.522Z,23.70
2018-03-27T15:46:49.538Z,22.60
2018-03-27T15:49:20.512Z,25.58
2018-03-27T15:51:51.768Z,21.40
2018-03-27T15:54:26.700Z,22.87
2018-03-27T15:56:58.541Z,27.08
2018-03-27T15:59:29.603Z,30.55
2018-03-27T16:02:01.015Z,31.15
2018-03-27T16:04:32.736Z,29.33
2018-03-27T16:07:20.319Z,27.87
2018-03-27T16:10:03.825Z,28.85
2018-03-27T16:12:53.232Z,30.45
2018-03-27T16:15:26.237Z,32.63
2018-03-27T16:18:07.631Z,25.30
2018-03-27T16:20:40.167Z,30.83
2018-03-27T16:23:20.143Z,32.53
2018-03-27T18:06:18.368Z,31.30
2018-03-27T18:08:51.694Z,26.60
2018-03-27T18:11:22.178Z,28.40
2018-03-27T18:13:52.691Z,28.90
2018-03-27T18:16:23.312Z,27.37
2018-03-27T18:18:55.342Z,24.08
2018-03-27T18:21:26.638Z,25.52
2018-03-27T18:23:58.557Z,31.37
2018-03-27T18:26:29.284Z,33.00
2018-03-27T18:29:00.209Z,28.35
2018-03-27T18:31:31.359Z,29.73
2018-03-27T18:34:03.311Z,34.20
2018-03-27T18:36:34.789Z,29.02
2018-03-27T18:39:06.866Z,28.70
2018-03-27T18:41:37.662Z,24.83
2018-03-27T18:44:07.906Z,36.90
2018-03-27T18:46:38.233Z,31.45
2018-03-27T18:49:09.537Z,28.27
2018-03-27T18:51:39.819Z,30.20
2018-03-27T18:54:12.252Z,29.42
2018-03-27T18:56:43.581Z,31.87
2018-03-27T18:59:13.758Z,30.67
2018-03-27T19:01:46.085Z,28.20
2018-03-27T19:06:16.860Z,25.23
2018-03-27T19:08:49.954Z,25.90
2018-03-27T19:11:20.971Z,26.47
2018-03-27T19:13:52.500Z,26.23
2018-03-27T19:16:24.398Z,27.87
2018-03-27T19:18:55.451Z,29.50
2018-03-27T19:21:26.517Z,28.23
2018-03-27T19:23:58.573Z,26.77
2018-03-27T19:26:33.361Z,26.45
2018-03-27T19:29:06.282Z,29.40
2018-03-27T19:31:39.168Z,25.83
2018-03-27T19:34:10.572Z,27.00
2018-03-27T19:36:43.141Z,27.67
2018-03-27T19:39:15.778Z,24.45
2018-03-27T19:41:47.014Z,26.73
2018-03-27T19:44:17.725Z,27.23
2018-03-27T19:46:49.280Z,24.98
2018-03-27T19:49:20.610Z,24.33
2018-03-27T19:51:51.013Z,26.77
2018-03-27T19:54:21.566Z,24.67
2018-03-27T19:56:52.120Z,29.33
2018-03-27T19:59:23.130Z,31.25
2018-03-27T20:01:53.440Z,26.80
2018-03-27T20:04:24.561Z,28.95
2018-03-27T20:06:55.388Z,25.77
2018-03-27T20:09:25.934Z,25.85
2018-03-27T20:11:56.642Z,26.35
2018-03-27T20:14:28.247Z,23.80
2018-03-27T20:16:58.526Z,25.90
2018-03-27T20:19:30.142Z,27.43
2018-03-27T20:22:01.295Z,24.98
2018-03-27T20:24:31.960Z,26.75
2018-03-27T20:27:02.185Z,26.12
2018-03-27T20:29:33.106Z,25.80
2018-03-27T20:32:03.844Z,27.10
2018-03-27T20:34:34.846Z,25.75
2018-03-27T20:37:05.367Z,25.50
2018-03-27T20:39:37.017Z,24.40
2018-03-27T20:42:18.486Z,23.45
2018-03-27T20:44:53.218Z,23.92
2018-03-27T20:47:23.541Z,26.30
2018-03-27T20:49:53.774Z,25.10
2018-03-27T20:52:24.024Z,23.45
2018-03-27T20:54:54.660Z,24.33
2018-03-27T20:57:25.321Z,23.23
2018-03-27T21:00:01.209Z,25.25
2018-03-27T21:02:39.983Z,35.42
2018-03-27T21:05:11.370Z,25.75
2018-03-27T21:07:42.518Z,24.23
2018-03-27T21:10:13.008Z,23.58
2018-03-27T21:12:43.989Z,24.50
2018-03-27T21:15:14.405Z,22.95
2018-03-27T21:17:44.765Z,22.27
2018-03-27T21:20:15.350Z,21.20
2018-03-27T21:22:45.921Z,23.98
2018-03-27T21:25:16.178Z,28.15
2018-03-27T21:27:46.270Z,25.10
2018-03-27T21:30:16.552Z,24.63
2018-03-27T21:32:47.322Z,23.17
2018-03-27T21:35:18.701Z,26.43
2018-03-27T21:37:50.639Z,22.45
2018-03-27T21:40:21.227Z,23.50
2018-03-27T21:42:51.539Z,22.40
2018-03-27T21:45:22.515Z,25.23
2018-03-27T21:47:52.762Z,24.92
2018-03-27T21:50:23.377Z,28.40
2018-03-27T21:52:54.010Z,26.10
2018-03-27T21:55:24.561Z,26.35
2018-03-27T21:57:55.267Z,27.40
2018-03-27T22:00:25.902Z,29.10
2018-03-27T22:02:56.450Z,27.52
2018-03-27T22:05:27.055Z,22.08
2018-03-27T22:07:58.042Z,22.92
2018-03-27T22:10:28.278Z,22.67
2018-03-27T22:12:59.572Z,23.27
2018-03-27T22:15:30.127Z,24.87
2018-03-27T22:18:00.853Z,21.70
2018-03-27T22:20:31.374Z,18.42
2018-03-27T22:23:01.775Z,24.33
2018-03-27T22:25:33.745Z,20.80
2018-03-27T22:28:04.233Z,21.58
2018-03-27T22:30:34.470Z,19.17
2018-03-27T22:33:05.359Z,18.97
2018-03-27T22:35:36.326Z,18.55
2018-03-27T22:38:08.187Z,20.05
2018-03-27T22:40:39.168Z,18.60
2018-03-27T22:43:09.395Z,19.67
2018-03-27T22:45:39.658Z,20.65
2018-03-27T22:48:10.745Z,19.17
2018-03-27T22:50:40.997Z,17.27
2018-03-27T22:53:11.269Z,18.17
2018-03-27T22:55:41.506Z,19.35
2018-03-27T22:58:12.039Z,16.83
2018-03-27T23:00:42.225Z,19.17
2018-03-27T23:03:12.796Z,19.37
2018-03-27T23:05:44.217Z,18.62
2018-03-27T23:08:14.913Z,19.33
2018-03-27T23:10:45.314Z,20.00
2018-03-27T23:13:15.900Z,19.73
2018-03-27T23:15:46.456Z,22.73
2018-03-27T23:18:17.150Z,23.10
2018-03-27T23:20:47.544Z,20.65
2018-03-27T23:23:18.075Z,19.17
2018-03-27T23:25:48.621Z,20.37
2018-03-27T23:28:19.617Z,21.42
2018-03-27T23:30:49.777Z,18.62
2018-03-27T23:33:20.400Z,21.33
2018-03-27T23:35:50.541Z,20.10
2018-03-27T23:38:21.145Z,24.63
2018-03-27T23:40:52.156Z,20.90
2018-03-27T23:43:22.416Z,19.12
2018-03-27T23:45:52.638Z,20.65
2018-03-27T23:48:22.882Z,21.35
2018-03-27T23:50:53.202Z,23.30
2018-03-27T23:53:23.682Z,22.62
2018-03-27T23:55:55.331Z,20.73
2018-03-27T23:58:26.592Z,22.48
